Time,TemperatureF,DewpointF,PressureIn,WindDirection,WindDirectionDegrees,WindSpeedMPH,WindSpeedGustMPH,Humidity,HourlyPrecipIn,Conditions,Clouds,dailyrainin,SoftwareType,DateUTC
2013-06-07 08:40:00,86.1,29.5,29.97,NNE,20,2.0,2.0,13,0.00,,,0.00,Wunderground v.1.15,2013-06-07 15:40:00,
2013-06-07 08:50:00,87.0,30.2,29.97,NNE,27,2.0,2.0,13,0.00,,,0.00,Wunderground v.1.15,2013-06-07 15:50:00,
2013-06-07 09:00:00,88.2,29.2,29.97,ENE,63,2.0,2.0,12,0.00,,,0.00,Wunderground v.1.15,2013-06-07 16:00:00,
2013-06-07 09:10:00,88.8,29.6,29.97,East,100,2.0,2.0,12,0.00,,,0.00,Wunderground v.1.15,2013-06-07 16:10:00,
2013-06-07 09:20:00,89.8,30.4,29.96,NE,49,1.0,2.0,12,0.00,,,0.00,Wunderground v.1.15,2013-06-07 16:20:00,
2013-06-07 09:30:00,91.4,29.5,29.96,East,101,1.0,1.0,11,0.00,,,0.00,Wunderground v.1.15,2013-06-07 16:30:00,
2013-06-07 09:40:00,92.1,30.0,29.95,SW,231,1.0,1.0,11,0.00,,,0.00,Wunderground v.1.15,2013-06-07 16:40:00,
2013-06-07 09:50:00,92.7,30.5,29.95,ENE,65,1.0,1.0,11,0.00,,,0.00,Wunderground v.1.15,2013-06-07 16:50:00,
2013-06-07 10:00:00,94.4,31.8,29.95,SW,224,1.0,1.0,11,0.00,,,0.00,Wunderground v.1.15,2013-06-07 17:00:00,
2013-06-07 10:10:00,95.5,32.6,29.95,ENE,75,1.0,2.0,11,0.00,,,0.00,Wunderground v.1.15,2013-06-07 17:10:00,
2013-06-07 10:20:00,96.0,30.7,29.95,SSE,147,1.0,1.0,10,0.00,,,0.00,Wunderground v.1.15,2013-06-07 17:20:00,
2013-06-07 10:30:00,97.2,31.6,29.95,East,91,2.0,2.0,10,0.00,,,0.00,Wunderground v.1.15,2013-06-07 17:30:00,
2013-06-07 10:40:00,98.0,32.2,29.94,NE,54,2.0,4.0,10,0.00,,,0.00,Wunderground v.1.15,2013-06-07 17:40:00,
2013-06-07 10:50:00,97.5,29.2,29.94,South,186,2.0,2.0,9,0.00,,,0.00,Wunderground v.1.15,2013-06-07 17:50:00,
2013-06-07 11:00:00,98.1,29.6,29.94,ESE,115,2.0,2.0,9,0.00,,,0.00,Wunderground v.1.15,2013-06-07 18:00:00,
2013-06-07 11:10:00,98.7,32.7,29.93,ENE,75,2.0,3.0,10,0.00,,,0.00,Wunderground v.1.15,2013-06-07 18:10:00,
2013-06-07 11:20:00,100.0,33.7,29.93,South,179,2.0,2.0,10,0.00,,,0.00,Wunderground v.1.15,2013-06-07 18:20:00,
2013-06-07 11:30:00,101.1,29.0,29.92,South,176,3.0,3.0,8,0.00,,,0.00,Wunderground v.1.15,2013-06-07 18:30:00,
2013-06-07 11:40:00,100.6,28.6,29.92,SE,133,3.0,4.0,8,0.00,,,0.00,Wunderground v.1.15,2013-06-07 18:40:00,
2013-06-07 11:50:00,101.2,31.9,29.92,South,188,3.0,6.0,9,0.00,,,0.00,Wunderground v.1.15,2013-06-07 18:50:00,
2013-06-07 12:00:00,100.5,28.5,29.92,ENE,71,3.0,3.0,8,0.00,,,0.00,Wunderground v.1.15,2013-06-07 19:00:00,
2013-06-07 12:10:00,101.8,29.5,29.91,ESE,107,3.0,6.0,8,0.00,,,0.00,Wunderground v.1.15,2013-06-07 19:10:00,
2013-06-07 12:20:00,101.1,25.7,29.91,East,84,4.0,4.0,7,0.00,,,0.00,Wunderground v.1.15,2013-06-07 19:20:00,
2013-06-07 12:30:00,102.0,26.4,29.90,NE,54,3.0,3.0,7,0.00,,,0.00,Wunderground v.1.15,2013-06-07 19:30:00,
2013-06-07 12:40:00,102.2,26.5,29.90,NW,306,3.0,3.0,7,0.00,,,0.00,Wunderground v.1.15,2013-06-07 19:40:00,
2013-06-07 12:50:00,102.9,23.3,29.90,ENE,72,3.0,6.0,6,0.00,,,0.00,Wunderground v.1.15,2013-06-07 19:50:00,
2013-06-07 13:00:00,103.4,23.7,29.89,NE,34,4.0,4.0,6,0.00,,,0.00,Wunderground v.1.15,2013-06-07 20:00:00,
2013-06-07 13:10:00,103.9,24.0,29.89,North,8,3.0,3.0,6,0.00,,,0.00,Wunderground v.1.15,2013-06-07 20:10:00,
2013-06-07 13:20:00,104.7,24.6,29.89,West,267,2.0,2.0,6,0.00,,,0.00,Wunderground v.1.15,2013-06-07 20:20:00,
2013-06-07 13:31:00,103.4,23.7,29.88,North,352,2.0,2.0,6,0.00,,,0.00,Wunderground v.1.15,2013-06-07 20:31:00,
2013-06-07 13:40:00,104.3,24.3,29.87,WSW,245,2.0,8.0,6,0.00,,,0.00,Wunderground v.1.15,2013-06-07 20:40:00,
2013-06-07 13:50:00,104.6,20.2,29.87,SW,229,5.0,5.0,5,0.00,,,0.00,Wunderground v.1.15,2013-06-07 20:50:00,
2013-06-07 14:00:00,103.5,23.7,29.87,SW,233,4.0,4.0,6,0.00,,,0.00,Wunderground v.1.15,2013-06-07 21:00:00,
2013-06-07 14:10:00,104.0,24.1,29.86,SW,233,4.0,4.0,6,0.00,,,0.00,Wunderground v.1.15,2013-06-07 21:10:00,
2013-06-07 14:20:00,104.4,24.4,29.86,NNE,18,4.0,4.0,6,0.00,,,0.00,Wunderground v.1.15,2013-06-07 21:20:00,
2013-06-07 14:30:00,102.3,22.9,29.86,NNE,30,3.0,5.0,6,0.00,,,0.00,Wunderground v.1.15,2013-06-07 21:30:00,
2013-06-07 14:40:00,101.1,22.0,29.85,SW,218,4.0,8.0,6,0.00,,,0.00,Wunderground v.1.15,2013-06-07 21:40:00,
2013-06-07 14:50:00,101.1,22.0,29.85,South,184,2.0,3.0,6,0.00,,,0.00,Wunderground v.1.15,2013-06-07 21:50:00,
2013-06-07 15:00:00,100.3,21.5,29.85,North,354,2.0,2.0,6,0.00,,,0.00,Wunderground v.1.15,2013-06-07 22:00:00,
2013-06-07 15:10:00,99.3,20.8,29.84,NW,322,3.0,3.0,6,0.00,,,0.00,Wunderground v.1.15,2013-06-07 22:10:00,
2013-06-07 15:20:00,98.8,24.1,29.84,WNW,302,3.0,3.0,7,0.00,,,0.00,Wunderground v.1.15,2013-06-07 22:20:00,
2013-06-07 15:30:00,99.3,24.4,29.84,ESE,121,2.0,2.0,7,0.00,,,0.00,Wunderground v.1.15,2013-06-07 22:30:00,
2013-06-07 15:40:00,99.1,24.3,29.84,SE,142,1.0,1.0,7,0.00,,,0.00,Wunderground v.1.15,2013-06-07 22:40:00,
2013-06-07 15:50:00,99.1,24.3,29.83,SSE,148,1.0,1.0,7,0.00,,,0.00,Wunderground v.1.15,2013-06-07 22:50:00,
2013-06-07 16:00:00,98.6,23.9,29.83,SE,146,1.0,1.0,7,0.00,,,0.00,Wunderground v.1.15,2013-06-07 23:00:00,
2013-06-07 16:10:00,98.8,24.1,29.83,WNW,293,1.0,3.0,7,0.00,,,0.00,Wunderground v.1.15,2013-06-07 23:10:00,
2013-06-07 16:20:00,98.9,20.5,29.82,WNW,292,2.0,3.0,6,0.00,,,0.00,Wunderground v.1.15,2013-06-07 23:20:00,
2013-06-07 16:30:00,98.8,20.4,29.82,North,349,4.0,4.0,6,0.00,,,0.00,Wunderground v.1.15,2013-06-07 23:30:00,
2013-06-07 16:40:00,98.6,23.9,29.82,NNW,345,2.0,2.0,7,0.00,,,0.00,Wunderground v.1.15,2013-06-07 23:40:00,
2013-06-07 16:50:00,98.9,24.1,29.82,NNE,26,3.0,5.0,7,0.00,,,0.00,Wunderground v.1.15,2013-06-07 23:50:00,
2013-06-07 17:01:00,98.7,20.3,29.81,NNE,18,5.0,6.0,6,0.00,,,0.00,Wunderground v.1.15,2013-06-08 00:01:00,
2013-06-07 17:10:00,98.6,20.3,29.81,West,266,3.0,4.0,6,0.00,,,0.00,Wunderground v.1.15,2013-06-08 00:10:00,
2013-06-07 17:20:00,100.1,21.3,29.81,WNW,296,2.0,2.0,6,0.00,,,0.00,Wunderground v.1.15,2013-06-08 00:20:00,
2013-06-07 17:30:00,101.9,22.6,29.81,North,10,4.0,4.0,6,0.00,,,0.00,Wunderground v.1.15,2013-06-08 00:30:00,
2013-06-07 17:40:00,101.8,26.2,29.80,SSE,162,3.0,5.0,7,0.00,,,0.00,Wunderground v.1.15,2013-06-08 00:40:00,
2013-06-07 17:50:00,100.4,28.5,29.80,WSW,247,6.0,8.0,8,0.00,,,0.00,Wunderground v.1.15,2013-06-08 00:50:00,
2013-06-07 18:00:00,99.2,30.5,29.81,SSW,202,9.0,9.0,9,0.00,,,0.00,Wunderground v.1.15,2013-06-08 01:00:00,
2013-06-07 18:10:00,99.6,27.9,29.80,SSW,205,6.0,11.0,8,0.00,,,0.00,Wunderground v.1.15,2013-06-08 01:10:00,
2013-06-07 18:20:00,99.2,27.6,29.81,SSW,210,7.0,7.0,8,0.00,,,0.00,Wunderground v.1.15,2013-06-08 01:20:00,
2013-06-07 18:30:00,98.8,27.3,29.81,SSW,207,7.0,7.0,8,0.00,,,0.00,Wunderground v.1.15,2013-06-08 01:30:00,
2013-06-07 18:40:00,98.6,27.1,29.81,SW,229,4.0,5.0,8,0.00,,,0.00,Wunderground v.1.15,2013-06-08 01:40:00,
2013-06-07 18:50:00,98.3,29.8,29.81,SW,229,3.0,8.0,9,0.00,,,0.00,Wunderground v.1.15,2013-06-08 01:50:00,
2013-06-07 19:00:00,96.9,25.9,29.81,WSW,238,5.0,7.0,8,0.00,,,0.00,Wunderground v.1.15,2013-06-08 02:00:00,
2013-06-07 19:10:00,95.1,27.4,29.81,West,281,4.0,4.0,9,0.00,,,0.00,Wunderground v.1.15,2013-06-08 02:10:00,
2013-06-07 19:20:00,92.4,19.4,29.81,WNW,288,2.0,3.0,7,0.00,,,0.00,Wunderground v.1.15,2013-06-08 02:20:00,
2013-06-07 19:30:00,90.2,17.8,29.82,WNW,296,2.0,2.0,7,0.00,,,0.00,Wunderground v.1.15,2013-06-08 02:30:00,
2013-06-07 19:40:00,88.4,19.6,29.82,NW,319,3.0,3.0,8,0.00,,,0.00,Wunderground v.1.15,2013-06-08 02:40:00,
2013-06-07 19:50:00,86.6,18.3,29.82,NW,305,4.0,4.0,8,0.00,,,0.00,Wunderground v.1.15,2013-06-08 02:50:00,
2013-06-07 20:00:00,85.7,20.3,29.82,WNW,302,3.0,3.0,9,0.00,,,0.00,Wunderground v.1.15,2013-06-08 03:00:00,
2013-06-07 20:10:00,84.6,16.8,29.83,WNW,300,3.0,4.0,8,0.00,,,0.00,Wunderground v.1.15,2013-06-08 03:10:00,
2013-06-07 20:20:00,86.5,18.2,29.83,WSW,254,4.0,4.0,8,0.00,,,0.00,Wunderground v.1.15,2013-06-08 03:20:00,
2013-06-07 20:30:00,88.6,19.7,29.83,NW,307,4.0,4.0,8,0.00,,,0.00,Wunderground v.1.15,2013-06-08 03:30:00,
2013-06-07 20:40:00,89.3,23.0,29.84,WNW,290,4.0,4.0,9,0.00,,,0.00,Wunderground v.1.15,2013-06-08 03:40:00,
2013-06-07 20:50:00,89.9,26.0,29.84,West,269,6.0,6.0,10,0.00,,,0.00,Wunderground v.1.15,2013-06-08 03:50:00,
2013-06-07 21:00:00,90.4,26.4,29.84,WNW,303,6.0,6.0,10,0.00,,,0.00,Wunderground v.1.15,2013-06-08 04:00:00,
2013-06-07 21:10:00,90.0,26.1,29.85,NNW,329,4.0,4.0,10,0.00,,,0.00,Wunderground v.1.15,2013-06-08 04:10:00,
2013-06-07 21:20:00,90.2,26.3,29.85,WNW,291,4.0,6.0,10,0.00,,,0.00,Wunderground v.1.15,2013-06-08 04:20:00,
2013-06-07 21:30:00,91.1,26.9,29.85,West,274,6.0,6.0,10,0.00,,,0.00,Wunderground v.1.15,2013-06-08 04:30:00,